sensor_id;sensor_type;location;lat;lon;timestamp;P1;durP1;ratioP1;P2;durP2;ratioP2
68995;SDS011;56056;48.990;12.146;2023-04-15T00:01:41;361.50;;;337.50;;
68995;SDS011;56056;48.990;12.146;2023-04-15T00:04:07;285.83;;;270.23;;
68995;SDS011;56056;48.990;12.146;2023-04-15T00:06:33;443.52;;;418.40;;
68995;SDS011;56056;48.990;12.146;2023-04-15T00:09:00;317.85;;;299.20;;
68995;SDS011;56056;48.990;12.146;2023-04-15T00:11:28;896.65;;;834.38;;
68995;SDS011;56056;48.990;12.146;2023-04-15T00:13:54;564.88;;;416.67;;
68995;SDS011;56056;48.990;12.146;2023-04-15T00:16:20;526.47;;;498.00;;
68995;SDS011;56056;48.990;12.146;2023-04-15T00:18:46;199.32;;;189.65;;
68995;SDS011;56056;48.990;12.146;2023-04-15T00:21:11;346.40;;;328.67;;
68995;SDS011;56056;48.990;12.146;2023-04-15T00:23:37;220.18;;;207.73;;
68995;SDS011;56056;48.990;12.146;2023-04-15T00:26:03;223.10;;;211.77;;
68995;SDS011;56056;48.990;12.146;2023-04-15T00:28:30;216.70;;;204.90;;
68995;SDS011;56056;48.990;12.146;2023-04-15T00:30:56;162.00;;;153.10;;
68995;SDS011;56056;48.990;12.146;2023-04-15T00:33:21;92.45;;;87.75;;
68995;SDS011;56056;48.990;12.146;2023-04-15T00:35:47;544.17;;;511.42;;
68995;SDS011;56056;48.990;12.146;2023-04-15T00:38:13;148.77;;;140.25;;
68995;SDS011;56056;48.990;12.146;2023-04-15T00:40:39;67.53;;;64.32;;
68995;SDS011;56056;48.990;12.146;2023-04-15T00:43:05;136.77;;;129.82;;
68995;SDS011;56056;48.990;12.146;2023-04-15T00:45:32;89.22;;;84.43;;
68995;SDS011;56056;48.990;12.146;2023-04-15T00:47:58;345.20;;;326.38;;
68995;SDS011;56056;48.990;12.146;2023-04-15T00:50:24;97.38;;;92.68;;
68995;SDS011;56056;48.990;12.146;2023-04-15T00:52:49;325.92;;;306.70;;
68995;SDS011;56056;48.990;12.146;2023-04-15T00:55:15;257.25;;;242.52;;
68995;SDS011;56056;48.990;12.146;2023-04-15T00:57:41;130.18;;;123.22;;
68995;SDS011;56056;48.990;12.146;2023-04-15T01:00:07;305.58;;;288.90;;
68995;SDS011;56056;48.990;12.146;2023-04-15T01:02:36;467.45;;;439.80;;
68995;SDS011;56056;48.990;12.146;2023-04-15T01:05:03;163.73;;;155.68;;
68995;SDS011;56056;48.990;12.146;2023-04-15T01:07:29;99.55;;;94.75;;
68995;SDS011;56056;48.990;12.146;2023-04-15T01:09:55;210.38;;;198.20;;
68995;SDS011;56056;48.990;12.146;2023-04-15T01:12:20;385.45;;;364.15;;
68995;SDS011;56056;48.990;12.146;2023-04-15T01:14:46;455.42;;;427.85;;
68995;SDS011;56056;48.990;12.146;2023-04-15T01:17:12;111.38;;;106.20;;
68995;SDS011;56056;48.990;12.146;2023-04-15T01:19:39;219.43;;;209.13;;
68995;SDS011;56056;48.990;12.146;2023-04-15T01:22:05;118.40;;;112.70;;
68995;SDS011;56056;48.990;12.146;2023-04-15T01:24:31;239.05;;;220.02;;
68995;SDS011;56056;48.990;12.146;2023-04-15T01:26:59;157.65;;;150.05;;
68995;SDS011;56056;48.990;12.146;2023-04-15T01:29:25;104.15;;;99.03;;
68995;SDS011;56056;48.990;12.146;2023-04-15T01:31:51;279.88;;;254.43;;
68995;SDS011;56056;48.990;12.146;2023-04-15T01:34:18;675.17;;;616.80;;
68995;SDS011;56056;48.990;12.146;2023-04-15T01:36:43;391.77;;;369.67;;
68995;SDS011;56056;48.990;12.146;2023-04-15T01:39:09;177.13;;;167.95;;
68995;SDS011;56056;48.990;12.146;2023-04-15T01:41:35;267.75;;;251.88;;
68995;SDS011;56056;48.990;12.146;2023-04-15T01:44:02;516.55;;;479.98;;
68995;SDS011;56056;48.990;12.146;2023-04-15T01:46:28;67.78;;;63.90;;
68995;SDS011;56056;48.990;12.146;2023-04-15T01:48:53;231.75;;;218.35;;
68995;SDS011;56056;48.990;12.146;2023-04-15T01:51:19;606.63;;;564.63;;
68995;SDS011;56056;48.990;12.146;2023-04-15T01:53:46;80.72;;;77.07;;
68995;SDS011;56056;48.990;12.146;2023-04-15T01:56:11;117.72;;;112.18;;
68995;SDS011;56056;48.990;12.146;2023-04-15T01:58:37;103.38;;;98.50;;
68995;SDS011;56056;48.990;12.146;2023-04-15T02:01:05;475.73;;;437.83;;
68995;SDS011;56056;48.990;12.146;2023-04-15T02:03:31;297.27;;;278.95;;
68995;SDS011;56056;48.990;12.146;2023-04-15T02:05:57;154.57;;;146.32;;
68995;SDS011;56056;48.990;12.146;2023-04-15T02:08:23;149.40;;;141.90;;
68995;SDS011;56056;48.990;12.146;2023-04-15T02:10:48;146.48;;;138.93;;
68995;SDS011;56056;48.990;12.146;2023-04-15T02:13:14;215.32;;;203.43;;
68995;SDS011;56056;48.990;12.146;2023-04-15T02:15:43;121.88;;;115.97;;
68995;SDS011;56056;48.990;12.146;2023-04-15T02:18:12;130.88;;;124.18;;
68995;SDS011;56056;48.990;12.146;2023-04-15T02:20:38;130.77;;;124.47;;
68995;SDS011;56056;48.990;12.146;2023-04-15T02:23:04;152.85;;;145.25;;
68995;SDS011;56056;48.990;12.146;2023-04-15T02:25:31;108.20;;;102.35;;
68995;SDS011;56056;48.990;12.146;2023-04-15T02:27:57;200.25;;;189.10;;
68995;SDS011;56056;48.990;12.146;2023-04-15T02:30:22;189.57;;;178.85;;
68995;SDS011;56056;48.990;12.146;2023-04-15T02:32:49;115.80;;;110.30;;
68995;SDS011;56056;48.990;12.146;2023-04-15T02:35:16;110.97;;;104.88;;
68995;SDS011;56056;48.990;12.146;2023-04-15T02:37:44;249.32;;;235.68;;
68995;SDS011;56056;48.990;12.146;2023-04-15T02:40:10;169.93;;;161.50;;
68995;SDS011;56056;48.990;12.146;2023-04-15T02:42:37;339.08;;;321.05;;
68995;SDS011;56056;48.990;12.146;2023-04-15T02:45:03;108.78;;;102.93;;
68995;SDS011;56056;48.990;12.146;2023-04-15T02:47:30;224.82;;;213.45;;
68995;SDS011;56056;48.990;12.146;2023-04-15T02:49:55;388.00;;;366.92;;
68995;SDS011;56056;48.990;12.146;2023-04-15T02:52:24;167.60;;;158.75;;
68995;SDS011;56056;48.990;12.146;2023-04-15T02:54:49;426.65;;;400.80;;
68995;SDS011;56056;48.990;12.146;2023-04-15T02:57:16;571.25;;;537.20;;
68995;SDS011;56056;48.990;12.146;2023-04-15T02:59:41;328.58;;;306.90;;
68995;SDS011;56056;48.990;12.146;2023-04-15T03:02:07;171.38;;;162.32;;
68995;SDS011;56056;48.990;12.146;2023-04-15T03:04:32;176.13;;;166.57;;
68995;SDS011;56056;48.990;12.146;2023-04-15T03:06:58;164.52;;;156.60;;
68995;SDS011;56056;48.990;12.146;2023-04-15T03:09:26;247.95;;;232.38;;
68995;SDS011;56056;48.990;12.146;2023-04-15T03:11:52;448.80;;;422.67;;
68995;SDS011;56056;48.990;12.146;2023-04-15T03:14:18;181.93;;;171.25;;
68995;SDS011;56056;48.990;12.146;2023-04-15T03:16:44;130.48;;;124.03;;
68995;SDS011;56056;48.990;12.146;2023-04-15T03:19:10;129.13;;;122.25;;
68995;SDS011;56056;48.990;12.146;2023-04-15T03:21:36;190.68;;;180.88;;
68995;SDS011;56056;48.990;12.146;2023-04-15T03:24:01;33.05;;;30.95;;
68995;SDS011;56056;48.990;12.146;2023-04-15T03:26:29;80.93;;;76.70;;
68995;SDS011;56056;48.990;12.146;2023-04-15T03:28:55;90.85;;;86.00;;
68995;SDS011;56056;48.990;12.146;2023-04-15T03:31:21;173.20;;;164.38;;
68995;SDS011;56056;48.990;12.146;2023-04-15T03:33:47;311.95;;;293.92;;
68995;SDS011;56056;48.990;12.146;2023-04-15T03:36:13;240.80;;;227.38;;
68995;SDS011;56056;48.990;12.146;2023-04-15T03:38:39;96.97;;;91.60;;
68995;SDS011;56056;48.990;12.146;2023-04-15T03:41:05;345.92;;;326.65;;
68995;SDS011;56056;48.990;12.146;2023-04-15T03:43:32;369.90;;;348.02;;
68995;SDS011;56056;48.990;12.146;2023-04-15T03:45:58;437.42;;;410.67;;
68995;SDS011;56056;48.990;12.146;2023-04-15T03:48:24;84.40;;;80.50;;
68995;SDS011;56056;48.990;12.146;2023-04-15T03:50:49;547.65;;;515.85;;
68995;SDS011;56056;48.990;12.146;2023-04-15T03:53:15;81.40;;;76.57;;
68995;SDS011;56056;48.990;12.146;2023-04-15T03:55:41;323.65;;;300.80;;
68995;SDS011;56056;48.990;12.146;2023-04-15T03:58:07;229.15;;;217.20;;
68995;SDS011;56056;48.990;12.146;2023-04-15T04:00:34;176.77;;;166.45;;
68995;SDS011;56056;48.990;12.146;2023-04-15T04:03:00;229.07;;;216.48;;
68995;SDS011;56056;48.990;12.146;2023-04-15T04:05:26;87.30;;;82.40;;
68995;SDS011;56056;48.990;12.146;2023-04-15T04:07:51;91.70;;;86.57;;
68995;SDS011;56056;48.990;12.146;2023-04-15T04:10:17;88.70;;;84.13;;
68995;SDS011;56056;48.990;12.146;2023-04-15T04:12:43;252.05;;;237.20;;
68995;SDS011;56056;48.990;12.146;2023-04-15T04:15:09;226.05;;;213.18;;
68995;SDS011;56056;48.990;12.146;2023-04-15T04:17:36;78.15;;;74.32;;
68995;SDS011;56056;48.990;12.146;2023-04-15T04:20:02;63.13;;;59.78;;
68995;SDS011;56056;48.990;12.146;2023-04-15T04:22:29;55.00;;;52.22;;
68995;SDS011;56056;48.990;12.146;2023-04-15T04:24:55;274.67;;;259.13;;
68995;SDS011;56056;48.990;12.146;2023-04-15T04:27:23;140.95;;;132.23;;
68995;SDS011;56056;48.990;12.146;2023-04-15T04:29:48;144.82;;;137.60;;
68995;SDS011;56056;48.990;12.146;2023-04-15T04:32:14;260.30;;;244.88;;
68995;SDS011;56056;48.990;12.146;2023-04-15T04:34:41;51.33;;;48.80;;
68995;SDS011;56056;48.990;12.146;2023-04-15T04:37:07;333.65;;;309.88;;
68995;SDS011;56056;48.990;12.146;2023-04-15T04:39:33;55.28;;;52.17;;
68995;SDS011;56056;48.990;12.146;2023-04-15T04:41:58;112.57;;;106.50;;
68995;SDS011;56056;48.990;12.146;2023-04-15T04:44:25;95.63;;;90.35;;
68995;SDS011;56056;48.990;12.146;2023-04-15T04:46:51;149.40;;;141.50;;
68995;SDS011;56056;48.990;12.146;2023-04-15T04:49:16;693.42;;;645.53;;
68995;SDS011;56056;48.990;12.146;2023-04-15T04:51:43;67.85;;;64.63;;
68995;SDS011;56056;48.990;12.146;2023-04-15T04:54:11;146.13;;;137.60;;
68995;SDS011;56056;48.990;12.146;2023-04-15T04:56:36;49.33;;;47.08;;
68995;SDS011;56056;48.990;12.146;2023-04-15T04:59:03;139.88;;;132.73;;
68995;SDS011;56056;48.990;12.146;2023-04-15T05:01:29;68.00;;;64.70;;
68995;SDS011;56056;48.990;12.146;2023-04-15T05:03:55;67.68;;;64.20;;
68995;SDS011;56056;48.990;12.146;2023-04-15T05:06:21;79.32;;;75.32;;
68995;SDS011;56056;48.990;12.146;2023-04-15T05:08:48;91.60;;;86.72;;
68995;SDS011;56056;48.990;12.146;2023-04-15T05:11:13;53.65;;;50.60;;
68995;SDS011;56056;48.990;12.146;2023-04-15T05:13:39;85.68;;;80.70;;
68995;SDS011;56056;48.990;12.146;2023-04-15T05:16:05;222.70;;;210.55;;
68995;SDS011;56056;48.990;12.146;2023-04-15T05:18:31;24.17;;;22.90;;
68995;SDS011;56056;48.990;12.146;2023-04-15T05:20:57;64.15;;;61.13;;
68995;SDS011;56056;48.990;12.146;2023-04-15T05:23:23;164.55;;;156.20;;
68995;SDS011;56056;48.990;12.146;2023-04-15T05:25:50;25.15;;;23.73;;
68995;SDS011;56056;48.990;12.146;2023-04-15T05:28:16;241.18;;;226.88;;
68995;SDS011;56056;48.990;12.146;2023-04-15T05:30:41;67.57;;;64.47;;
68995;SDS011;56056;48.990;12.146;2023-04-15T05:33:07;106.90;;;101.32;;
68995;SDS011;56056;48.990;12.146;2023-04-15T05:35:33;67.70;;;64.45;;
68995;SDS011;56056;48.990;12.146;2023-04-15T05:37:58;99.00;;;93.75;;
68995;SDS011;56056;48.990;12.146;2023-04-15T05:40:24;92.88;;;88.45;;
68995;SDS011;56056;48.990;12.146;2023-04-15T05:42:51;96.38;;;91.28;;
68995;SDS011;56056;48.990;12.146;2023-04-15T05:45:17;68.25;;;65.15;;
68995;SDS011;56056;48.990;12.146;2023-04-15T05:47:43;96.28;;;91.45;;
68995;SDS011;56056;48.990;12.146;2023-04-15T05:50:09;83.32;;;78.65;;
68995;SDS011;56056;48.990;12.146;2023-04-15T05:52:35;304.50;;;287.73;;
68995;SDS011;56056;48.990;12.146;2023-04-15T05:55:01;11.60;;;11.07;;
68995;SDS011;56056;48.990;12.146;2023-04-15T05:57:26;68.05;;;64.70;;
68995;SDS011;56056;48.990;12.146;2023-04-15T05:59:53;31.75;;;30.23;;
68995;SDS011;56056;48.990;12.146;2023-04-15T06:02:21;34.72;;;33.13;;
68995;SDS011;56056;48.990;12.146;2023-04-15T06:04:46;80.75;;;74.80;;
68995;SDS011;56056;48.990;12.146;2023-04-15T06:07:12;444.90;;;418.40;;
68995;SDS011;56056;48.990;12.146;2023-04-15T06:09:38;36.25;;;34.65;;
68995;SDS011;56056;48.990;12.146;2023-04-15T06:12:03;29.70;;;28.38;;
68995;SDS011;56056;48.990;12.146;2023-04-15T06:14:30;662.00;;;611.47;;
68995;SDS011;56056;48.990;12.146;2023-04-15T06:16:57;213.27;;;199.23;;
68995;SDS011;56056;48.990;12.146;2023-04-15T06:19:23;171.93;;;128.65;;
68995;SDS011;56056;48.990;12.146;2023-04-15T06:21:49;20.30;;;19.17;;
68995;SDS011;56056;48.990;12.146;2023-04-15T06:24:15;32.42;;;30.67;;
68995;SDS011;56056;48.990;12.146;2023-04-15T06:26:41;67.45;;;64.22;;
68995;SDS011;56056;48.990;12.146;2023-04-15T06:29:06;58.30;;;55.05;;
68995;SDS011;56056;48.990;12.146;2023-04-15T06:31:32;13.07;;;12.43;;
68995;SDS011;56056;48.990;12.146;2023-04-15T06:33:59;27.55;;;26.17;;
68995;SDS011;56056;48.990;12.146;2023-04-15T06:36:25;35.03;;;33.40;;
68995;SDS011;56056;48.990;12.146;2023-04-15T06:38:51;335.83;;;315.83;;
68995;SDS011;56056;48.990;12.146;2023-04-15T06:41:17;30.83;;;29.40;;
68995;SDS011;56056;48.990;12.146;2023-04-15T06:43:43;404.88;;;383.10;;
68995;SDS011;56056;48.990;12.146;2023-04-15T06:46:08;57.05;;;54.47;;
68995;SDS011;56056;48.990;12.146;2023-04-15T06:48:35;44.45;;;42.28;;
68995;SDS011;56056;48.990;12.146;2023-04-15T06:51:01;429.23;;;402.55;;
68995;SDS011;56056;48.990;12.146;2023-04-15T06:53:28;133.00;;;125.88;;
68995;SDS011;56056;48.990;12.146;2023-04-15T06:55:53;280.83;;;265.63;;
68995;SDS011;56056;48.990;12.146;2023-04-15T06:58:19;380.83;;;359.27;;
68995;SDS011;56056;48.990;12.146;2023-04-15T07:00:45;190.43;;;179.15;;
68995;SDS011;56056;48.990;12.146;2023-04-15T07:03:11;396.77;;;373.88;;
68995;SDS011;56056;48.990;12.146;2023-04-15T07:05:39;364.48;;;296.17;;
68995;SDS011;56056;48.990;12.146;2023-04-15T07:08:06;191.75;;;181.77;;
68995;SDS011;56056;48.990;12.146;2023-04-15T07:10:32;141.18;;;134.23;;
68995;SDS011;56056;48.990;12.146;2023-04-15T07:12:58;101.45;;;95.05;;
68995;SDS011;56056;48.990;12.146;2023-04-15T07:15:23;148.02;;;140.32;;
68995;SDS011;56056;48.990;12.146;2023-04-15T07:17:49;327.30;;;308.30;;
68995;SDS011;56056;48.990;12.146;2023-04-15T07:20:15;72.70;;;68.80;;
68995;SDS011;56056;48.990;12.146;2023-04-15T07:22:41;490.08;;;462.83;;
68995;SDS011;56056;48.990;12.146;2023-04-15T07:25:09;317.27;;;300.30;;
68995;SDS011;56056;48.990;12.146;2023-04-15T07:27:34;433.25;;;409.00;;
68995;SDS011;56056;48.990;12.146;2023-04-15T07:30:00;186.07;;;176.57;;
68995;SDS011;56056;48.990;12.146;2023-04-15T07:32:26;200.82;;;190.80;;
68995;SDS011;56056;48.990;12.146;2023-04-15T07:34:52;46.22;;;44.08;;
68995;SDS011;56056;48.990;12.146;2023-04-15T07:37:17;500.92;;;461.48;;
68995;SDS011;56056;48.990;12.146;2023-04-15T07:39:43;268.15;;;254.48;;
68995;SDS011;56056;48.990;12.146;2023-04-15T07:42:10;91.18;;;87.05;;
68995;SDS011;56056;48.990;12.146;2023-04-15T07:44:36;74.75;;;71.03;;
68995;SDS011;56056;48.990;12.146;2023-04-15T07:47:02;114.25;;;108.55;;
68995;SDS011;56056;48.990;12.146;2023-04-15T07:49:28;885.88;;;690.90;;
68995;SDS011;56056;48.990;12.146;2023-04-15T07:51:53;73.50;;;69.85;;
68995;SDS011;56056;48.990;12.146;2023-04-15T07:54:21;192.48;;;182.55;;
68995;SDS011;56056;48.990;12.146;2023-04-15T07:56:47;187.10;;;177.43;;
68995;SDS011;56056;48.990;12.146;2023-04-15T07:59:14;103.00;;;97.82;;
68995;SDS011;56056;48.990;12.146;2023-04-15T08:01:41;204.02;;;194.07;;
68995;SDS011;56056;48.990;12.146;2023-04-15T08:04:08;772.00;;;725.13;;
68995;SDS011;56056;48.990;12.146;2023-04-15T08:06:34;215.32;;;204.73;;
68995;SDS011;56056;48.990;12.146;2023-04-15T08:09:00;345.17;;;326.80;;
68995;SDS011;56056;48.990;12.146;2023-04-15T08:11:26;173.48;;;164.65;;
68995;SDS011;56056;48.990;12.146;2023-04-15T08:13:52;184.45;;;174.85;;
68995;SDS011;56056;48.990;12.146;2023-04-15T08:16:19;284.98;;;270.15;;
68995;SDS011;56056;48.990;12.146;2023-04-15T08:18:46;548.03;;;518.00;;
68995;SDS011;56056;48.990;12.146;2023-04-15T08:21:12;207.05;;;196.88;;
68995;SDS011;56056;48.990;12.146;2023-04-15T08:23:38;228.00;;;215.48;;
68995;SDS011;56056;48.990;12.146;2023-04-15T08:26:04;416.38;;;395.33;;
68995;SDS011;56056;48.990;12.146;2023-04-15T08:28:30;318.08;;;298.42;;
68995;SDS011;56056;48.990;12.146;2023-04-15T08:30:56;284.65;;;267.50;;
68995;SDS011;56056;48.990;12.146;2023-04-15T08:33:23;322.25;;;305.33;;
68995;SDS011;56056;48.990;12.146;2023-04-15T08:35:48;339.92;;;321.67;;
68995;SDS011;56056;48.990;12.146;2023-04-15T08:38:14;719.22;;;669.42;;
68995;SDS011;56056;48.990;12.146;2023-04-15T08:40:40;303.73;;;287.40;;
68995;SDS011;56056;48.990;12.146;2023-04-15T08:43:07;403.45;;;383.02;;
68995;SDS011;56056;48.990;12.146;2023-04-15T08:45:34;373.80;;;353.42;;
68995;SDS011;56056;48.990;12.146;2023-04-15T08:48:00;314.70;;;298.40;;
68995;SDS011;56056;48.990;12.146;2023-04-15T08:50:29;470.08;;;445.42;;
68995;SDS011;56056;48.990;12.146;2023-04-15T08:52:57;300.83;;;285.73;;
68995;SDS011;56056;48.990;12.146;2023-04-15T08:55:24;293.23;;;278.58;;
68995;SDS011;56056;48.990;12.146;2023-04-15T08:57:50;193.27;;;183.23;;
68995;SDS011;56056;48.990;12.146;2023-04-15T09:00:16;262.80;;;249.23;;
68995;SDS011;56056;48.990;12.146;2023-04-15T09:02:42;388.88;;;368.30;;
68995;SDS011;56056;48.990;12.146;2023-04-15T09:05:08;494.77;;;468.63;;
68995;SDS011;56056;48.990;12.146;2023-04-15T09:07:35;426.65;;;404.08;;
68995;SDS011;56056;48.990;12.146;2023-04-15T09:10:01;633.22;;;598.42;;
68995;SDS011;56056;48.990;12.146;2023-04-15T09:12:27;455.88;;;430.85;;
68995;SDS011;56056;48.990;12.146;2023-04-15T09:14:53;724.33;;;682.92;;
68995;SDS011;56056;48.990;12.146;2023-04-15T09:17:18;518.20;;;449.75;;
68995;SDS011;56056;48.990;12.146;2023-04-15T09:19:45;799.30;;;752.25;;
68995;SDS011;56056;48.990;12.146;2023-04-15T09:22:11;272.23;;;257.90;;
68995;SDS011;56056;48.990;12.146;2023-04-15T09:24:39;681.13;;;641.67;;
68995;SDS011;56056;48.990;12.146;2023-04-15T09:27:06;354.77;;;336.65;;
68995;SDS011;56056;48.990;12.146;2023-04-15T09:29:32;531.00;;;501.63;;
68995;SDS011;56056;48.990;12.146;2023-04-15T09:32:08;364.70;;;345.85;;
68995;SDS011;56056;48.990;12.146;2023-04-15T09:34:34;441.98;;;417.67;;
68995;SDS011;56056;48.990;12.146;2023-04-15T09:37:00;338.45;;;319.60;;
68995;SDS011;56056;48.990;12.146;2023-04-15T09:39:26;849.92;;;798.35;;
68995;SDS011;56056;48.990;12.146;2023-04-15T09:42:05;528.03;;;498.02;;
68995;SDS011;56056;48.990;12.146;2023-04-15T09:44:32;258.05;;;245.32;;
68995;SDS011;56056;48.990;12.146;2023-04-15T09:46:57;486.90;;;460.60;;
68995;SDS011;56056;48.990;12.146;2023-04-15T09:49:23;450.83;;;426.55;;
68995;SDS011;56056;48.990;12.146;2023-04-15T09:51:49;129.13;;;122.32;;
68995;SDS011;56056;48.990;12.146;2023-04-15T09:54:17;465.13;;;440.50;;
68995;SDS011;56056;48.990;12.146;2023-04-15T09:56:44;429.42;;;407.00;;
68995;SDS011;56056;48.990;12.146;2023-04-15T09:59:11;811.38;;;762.33;;
68995;SDS011;56056;48.990;12.146;2023-04-15T10:01:37;557.90;;;527.42;;
68995;SDS011;56056;48.990;12.146;2023-04-15T10:04:05;683.13;;;643.03;;
68995;SDS011;56056;48.990;12.146;2023-04-15T10:06:31;589.72;;;557.83;;
68995;SDS011;56056;48.990;12.146;2023-04-15T10:08:57;953.30;;;869.25;;
68995;SDS011;56056;48.990;12.146;2023-04-15T10:11:22;531.33;;;503.35;;
68995;SDS011;56056;48.990;12.146;2023-04-15T10:13:49;536.47;;;506.70;;
68995;SDS011;56056;48.990;12.146;2023-04-15T10:16:18;643.65;;;609.63;;
68995;SDS011;56056;48.990;12.146;2023-04-15T10:18:45;662.47;;;624.92;;
68995;SDS011;56056;48.990;12.146;2023-04-15T10:21:12;686.05;;;647.33;;
68995;SDS011;56056;48.990;12.146;2023-04-15T10:23:42;483.83;;;457.60;;
68995;SDS011;56056;48.990;12.146;2023-04-15T10:26:08;636.40;;;600.65;;
68995;SDS011;56056;48.990;12.146;2023-04-15T10:28:36;562.80;;;524.85;;
68995;SDS011;56056;48.990;12.146;2023-04-15T10:31:02;665.25;;;624.85;;
68995;SDS011;56056;48.990;12.146;2023-04-15T10:33:30;731.67;;;689.15;;
68995;SDS011;56056;48.990;12.146;2023-04-15T10:35:56;654.38;;;618.28;;
68995;SDS011;56056;48.990;12.146;2023-04-15T10:38:32;746.72;;;700.55;;
68995;SDS011;56056;48.990;12.146;2023-04-15T10:43:49;838.28;;;784.67;;
68995;SDS011;56056;48.990;12.146;2023-04-15T10:46:23;615.70;;;581.03;;
68995;SDS011;56056;48.990;12.146;2023-04-15T10:49:05;577.72;;;546.17;;
68995;SDS011;56056;48.990;12.146;2023-04-15T10:51:32;671.03;;;632.45;;
68995;SDS011;56056;48.990;12.146;2023-04-15T10:53:58;859.08;;;804.72;;
68995;SDS011;56056;48.990;12.146;2023-04-15T10:56:24;845.05;;;790.08;;
68995;SDS011;56056;48.990;12.146;2023-04-15T10:58:50;994.90;;;899.15;;
68995;SDS011;56056;48.990;12.146;2023-04-15T11:01:16;1088.10;;;899.13;;
68995;SDS011;56056;48.990;12.146;2023-04-15T11:03:43;689.00;;;643.88;;
68995;SDS011;56056;48.990;12.146;2023-04-15T11:06:11;681.13;;;640.72;;
68995;SDS011;56056;48.990;12.146;2023-04-15T11:08:52;1033.45;;;931.42;;
68995;SDS011;56056;48.990;12.146;2023-04-15T11:11:20;934.60;;;847.03;;
68995;SDS011;56056;48.990;12.146;2023-04-15T11:13:46;830.25;;;770.75;;
68995;SDS011;56056;48.990;12.146;2023-04-15T11:16:13;795.15;;;742.47;;
68995;SDS011;56056;48.990;12.146;2023-04-15T11:18:39;715.92;;;670.85;;
68995;SDS011;56056;48.990;12.146;2023-04-15T11:21:05;835.20;;;776.25;;
68995;SDS011;56056;48.990;12.146;2023-04-15T11:23:34;1034.82;;;952.17;;
68995;SDS011;56056;48.990;12.146;2023-04-15T11:26:02;882.30;;;817.10;;
68995;SDS011;56056;48.990;12.146;2023-04-15T11:28:31;989.83;;;906.40;;
68995;SDS011;56056;48.990;12.146;2023-04-15T11:30:56;875.55;;;810.65;;
68995;SDS011;56056;48.990;12.146;2023-04-15T11:33:23;731.88;;;688.75;;
68995;SDS011;56056;48.990;12.146;2023-04-15T11:35:49;678.88;;;640.30;;
68995;SDS011;56056;48.990;12.146;2023-04-15T11:38:16;821.10;;;752.97;;
68995;SDS011;56056;48.990;12.146;2023-04-15T11:40:44;705.88;;;666.53;;
68995;SDS011;56056;48.990;12.146;2023-04-15T11:43:11;769.38;;;720.25;;
68995;SDS011;56056;48.990;12.146;2023-04-15T11:45:47;815.13;;;745.08;;
68995;SDS011;56056;48.990;12.146;2023-04-15T11:48:14;580.63;;;549.97;;
68995;SDS011;56056;48.990;12.146;2023-04-15T11:50:39;864.97;;;798.65;;
68995;SDS011;56056;48.990;12.146;2023-04-15T11:53:05;750.80;;;700.60;;
68995;SDS011;56056;48.990;12.146;2023-04-15T11:55:39;801.85;;;751.97;;
68995;SDS011;56056;48.990;12.146;2023-04-15T11:58:11;1009.15;;;926.30;;
68995;SDS011;56056;48.990;12.146;2023-04-15T12:00:39;956.40;;;882.60;;
68995;SDS011;56056;48.990;12.146;2023-04-15T12:06:01;743.40;;;693.70;;
68995;SDS011;56056;48.990;12.146;2023-04-15T12:11:19;830.70;;;770.60;;
68995;SDS011;56056;48.990;12.146;2023-04-15T12:13:47;1058.50;;;974.25;;
68995;SDS011;56056;48.990;12.146;2023-04-15T12:16:15;783.13;;;730.53;;
68995;SDS011;56056;48.990;12.146;2023-04-15T12:18:41;866.08;;;797.10;;
68995;SDS011;56056;48.990;12.146;2023-04-15T12:21:09;912.20;;;844.22;;
68995;SDS011;56056;48.990;12.146;2023-04-15T12:23:35;818.38;;;757.85;;
68995;SDS011;56056;48.990;12.146;2023-04-15T12:26:03;837.15;;;777.05;;
68995;SDS011;56056;48.990;12.146;2023-04-15T12:28:29;661.30;;;623.95;;
68995;SDS011;56056;48.990;12.146;2023-04-15T12:30:56;705.92;;;665.63;;
68995;SDS011;56056;48.990;12.146;2023-04-15T12:33:22;623.55;;;590.00;;
68995;SDS011;56056;48.990;12.146;2023-04-15T12:35:47;699.22;;;659.50;;
68995;SDS011;56056;48.990;12.146;2023-04-15T12:38:13;794.63;;;738.30;;
68995;SDS011;56056;48.990;12.146;2023-04-15T12:40:39;840.83;;;786.80;;
68995;SDS011;56056;48.990;12.146;2023-04-15T12:43:04;700.08;;;660.22;;
68995;SDS011;56056;48.990;12.146;2023-04-15T12:45:30;761.90;;;715.10;;
68995;SDS011;56056;48.990;12.146;2023-04-15T12:47:57;807.00;;;749.83;;
68995;SDS011;56056;48.990;12.146;2023-04-15T12:50:23;712.55;;;671.85;;
68995;SDS011;56056;48.990;12.146;2023-04-15T12:52:49;803.90;;;747.35;;
68995;SDS011;56056;48.990;12.146;2023-04-15T12:55:15;716.40;;;669.50;;
68995;SDS011;56056;48.990;12.146;2023-04-15T12:57:41;706.92;;;657.80;;
68995;SDS011;56056;48.990;12.146;2023-04-15T13:00:07;717.60;;;676.65;;
68995;SDS011;56056;48.990;12.146;2023-04-15T13:02:34;689.03;;;650.20;;
68995;SDS011;56056;48.990;12.146;2023-04-15T13:05:01;692.28;;;652.42;;
68995;SDS011;56056;48.990;12.146;2023-04-15T13:07:27;799.25;;;745.03;;
68995;SDS011;56056;48.990;12.146;2023-04-15T13:09:52;752.10;;;706.97;;
68995;SDS011;56056;48.990;12.146;2023-04-15T13:12:18;636.08;;;602.75;;
68995;SDS011;56056;48.990;12.146;2023-04-15T13:14:43;920.65;;;856.15;;
68995;SDS011;56056;48.990;12.146;2023-04-15T13:17:09;1009.97;;;931.78;;
68995;SDS011;56056;48.990;12.146;2023-04-15T13:19:35;661.55;;;624.65;;
68995;SDS011;56056;48.990;12.146;2023-04-15T13:22:02;765.15;;;719.58;;
68995;SDS011;56056;48.990;12.146;2023-04-15T13:24:28;797.42;;;743.45;;
68995;SDS011;56056;48.990;12.146;2023-04-15T13:26:53;694.53;;;654.22;;
68995;SDS011;56056;48.990;12.146;2023-04-15T13:29:19;1097.57;;;999.83;;
68995;SDS011;56056;48.990;12.146;2023-04-15T13:31:46;548.65;;;519.83;;
68995;SDS011;56056;48.990;12.146;2023-04-15T13:34:11;702.97;;;662.47;;
68995;SDS011;56056;48.990;12.146;2023-04-15T13:36:37;811.15;;;759.38;;
68995;SDS011;56056;48.990;12.146;2023-04-15T13:39:04;691.88;;;649.50;;
68995;SDS011;56056;48.990;12.146;2023-04-15T13:41:30;611.15;;;577.75;;
68995;SDS011;56056;48.990;12.146;2023-04-15T13:43:56;694.25;;;649.92;;
68995;SDS011;56056;48.990;12.146;2023-04-15T13:46:22;526.35;;;497.52;;
68995;SDS011;56056;48.990;12.146;2023-04-15T13:48:49;700.95;;;661.47;;
68995;SDS011;56056;48.990;12.146;2023-04-15T13:51:15;779.85;;;729.20;;
68995;SDS011;56056;48.990;12.146;2023-04-15T13:53:40;660.58;;;622.97;;